Time;durP1;ratioP1;P1;durP2;ratioP2;P2;SDS_P1;SDS_P2;PMS_P1;PMS_P2;Temp;Humidity;BMP_temperature;BMP_pressure;BME280_temperature;BME280_humidity;BME280_pressure;Samples;Min_cycle;Max_cycle;Signal;HPM_P1;HPM_P2
2024/01/18 00:01:38;;;;;;;1.00;0.90;;;11.00;99.90;;;;;;4969914;28;20234;-86
2024/01/18 00:04:05;;;;;;;1.30;1.20;;;10.90;99.90;;;;;;4973386;28;20564;-85
2024/01/18 00:06:34;;;;;;;1.20;1.10;;;11.40;99.90;;;;;;4977342;28;20456;-85
2024/01/18 00:09:00;;;;;;;1.40;1.00;;;11.30;99.90;;;;;;4983372;28;20172;-85
2024/01/18 00:11:25;;;;;;;1.20;1.10;;;11.40;99.90;;;;;;4996849;28;20213;-86
2024/01/18 00:13:51;;;;;;;3.30;1.20;;;10.80;99.90;;;;;;4986314;28;20201;-85
2024/01/18 00:16:17;;;;;;;1.30;1.20;;;10.30;99.90;;;;;;4979890;28;20252;-85
2024/01/18 00:18:42;;;;;;;4.70;1.60;;;10.30;99.90;;;;;;4981708;28;20209;-85
2024/01/18 00:21:08;;;;;;;1.20;1.10;;;11.00;99.90;;;;;;4977185;28;20218;-85
2024/01/18 00:23:33;;;;;;;1.00;0.90;;;10.60;99.90;;;;;;4979170;28;20679;-85
2024/01/18 00:25:59;;;;;;;1.40;1.00;;;10.80;99.90;;;;;;4962368;28;20210;-85
2024/01/18 00:28:24;;;;;;;1.43;1.33;;;10.50;99.90;;;;;;4972696;28;20190;-85
2024/01/18 00:30:50;;;;;;;3.17;1.00;;;10.70;99.90;;;;;;4974520;28;20192;-85
2024/01/18 00:33:15;;;;;;;0.90;0.90;;;10.60;99.90;;;;;;4974238;28;20195;-85
2024/01/18 00:35:41;;;;;;;1.03;0.93;;;10.60;99.90;;;;;;4974286;28;20737;-85
2024/01/18 00:38:07;;;;;;;1.47;1.10;;;10.80;99.90;;;;;;4974563;28;20202;-85
2024/01/18 00:40:32;;;;;;;1.20;0.90;;;10.50;99.90;;;;;;4968243;28;20182;-85
2024/01/18 00:42:58;;;;;;;1.17;1.00;;;10.40;99.90;;;;;;4996357;28;20202;-85
2024/01/18 00:45:23;;;;;;;2.40;1.00;;;10.50;99.90;;;;;;4995914;28;20221;-85
2024/01/18 00:47:49;;;;;;;1.10;1.00;;;10.70;99.90;;;;;;4996160;28;20244;-85
2024/01/18 00:50:15;;;;;;;1.10;1.00;;;10.30;99.90;;;;;;4977661;28;20267;-85
2024/01/18 00:52:40;;;;;;;1.17;1.00;;;10.50;99.90;;;;;;4990641;28;20198;-85
2024/01/18 00:55:07;;;;;;;1.10;1.00;;;10.40;99.90;;;;;;4994322;28;20276;-86
2024/01/18 00:57:33;;;;;;;1.67;1.10;;;10.40;99.90;;;;;;4992556;28;20191;-85
2024/01/18 00:59:59;;;;;;;1.00;0.90;;;10.90;99.90;;;;;;4991053;28;20454;-85
2024/01/18 01:02:25;;;;;;;1.85;0.90;;;10.50;99.90;;;;;;4995757;28;20213;-85
2024/01/18 01:04:50;;;;;;;2.90;1.10;;;10.70;99.90;;;;;;4991571;28;20245;-85
2024/01/18 01:07:16;;;;;;;1.30;0.90;;;10.70;99.90;;;;;;4993563;28;20182;-85
2024/01/18 01:09:41;;;;;;;1.40;1.30;;;10.70;99.90;;;;;;4995818;28;20181;-85
2024/01/18 01:12:08;;;;;;;1.80;1.10;;;10.40;99.90;;;;;;4996348;28;20241;-85
2024/01/18 01:14:33;;;;;;;1.05;0.90;;;10.30;99.90;;;;;;4994712;28;20196;-85
2024/01/18 01:16:59;;;;;;;1.27;1.17;;;10.40;99.90;;;;;;4990834;28;20203;-85
2024/01/18 01:19:24;;;;;;;1.00;0.90;;;10.80;99.90;;;;;;4992701;28;20203;-85
2024/01/18 01:21:50;;;;;;;1.10;0.90;;;10.30;99.90;;;;;;4994242;28;20172;-85
2024/01/18 01:24:18;;;;;;;0.87;0.80;;;10.30;99.90;;;;;;4984248;28;20220;-85
2024/01/18 01:26:44;;;;;;;2.28;0.98;;;10.00;99.90;;;;;;4991708;28;20192;-85
2024/01/18 01:29:11;;;;;;;1.20;1.10;;;10.70;99.90;;;;;;4982234;28;20197;-84
2024/01/18 01:31:36;;;;;;;1.00;0.95;;;10.50;99.90;;;;;;4981385;28;20207;-86
2024/01/18 01:34:02;;;;;;;1.70;0.93;;;11.70;99.90;;;;;;4981800;28;20805;-85
2024/01/18 01:36:27;;;;;;;1.33;1.03;;;10.40;99.90;;;;;;4981358;28;20199;-84
2024/01/18 01:38:53;;;;;;;1.17;1.07;;;10.10;99.90;;;;;;4979575;28;20181;-86
2024/01/18 01:41:18;;;;;;;2.57;1.07;;;10.30;99.90;;;;;;4978875;28;20212;-85
2024/01/18 01:44:00;;;;;;;0.90;0.80;;;10.30;99.90;;;;;;4978293;28;20213;-85
2024/01/18 01:46:27;;;;;;;1.00;0.90;;;10.40;99.90;;;;;;4977213;28;20185;-85
2024/01/18 01:49:02;;;;;;;1.60;1.13;;;10.80;99.90;;;;;;4980508;28;20189;-85
2024/01/18 01:51:48;;;;;;;1.42;1.08;;;10.20;99.90;;;;;;4984244;28;20642;-85
2024/01/18 01:54:19;;;;;;;1.23;0.95;;;10.10;99.90;;;;;;5000071;28;20206;-85
2024/01/18 01:56:47;;;;;;;1.45;0.95;;;10.10;99.90;;;;;;4994477;28;20383;-86
2024/01/18 01:59:14;;;;;;;1.10;1.00;;;10.30;99.90;;;;;;4994932;28;20248;-85
2024/01/18 02:01:43;;;;;;;1.83;1.00;;;10.30;99.90;;;;;;4979659;28;20210;-85
2024/01/18 02:04:10;;;;;;;1.60;1.30;;;10.50;99.90;;;;;;4989015;28;20274;-84
2024/01/18 02:06:37;;;;;;;1.67;1.00;;;10.20;99.90;;;;;;4982114;28;20181;-85
2024/01/18 02:09:03;;;;;;;1.40;1.17;;;10.40;99.90;;;;;;4985610;28;20197;-85
2024/01/18 02:11:29;;;;;;;1.90;1.50;;;9.80;99.90;;;;;;4977992;28;20182;-85
2024/01/18 02:13:55;;;;;;;2.60;1.70;;;9.90;99.90;;;;;;4975252;28;20484;-85
2024/01/18 02:16:21;;;;;;;1.90;1.40;;;10.20;99.90;;;;;;4963223;28;20196;-85
2024/01/18 02:18:47;;;;;;;1.50;1.40;;;10.20;99.90;;;;;;4975445;28;20452;-85
2024/01/18 02:21:13;;;;;;;1.50;1.27;;;10.20;99.90;;;;;;4976766;28;20185;-85
2024/01/18 02:23:43;;;;;;;0.90;0.90;;;10.00;99.90;;;;;;4983207;28;20475;-85
2024/01/18 02:26:09;;;;;;;1.30;1.20;;;9.90;99.90;;;;;;4984362;28;20296;-85
2024/01/18 02:28:34;;;;;;;1.70;1.20;;;9.80;99.90;;;;;;4993847;28;20197;-85
2024/01/18 02:31:00;;;;;;;1.50;0.83;;;10.00;99.90;;;;;;4995849;28;20180;-85
2024/01/18 02:33:25;;;;;;;1.20;1.10;;;10.00;99.90;;;;;;4993585;28;20177;-86
2024/01/18 02:35:51;;;;;;;0.90;0.80;;;10.40;99.90;;;;;;4992819;28;20220;-84
2024/01/18 02:38:16;;;;;;;1.33;1.23;;;10.50;99.90;;;;;;4997664;28;20179;-85
2024/01/18 02:40:42;;;;;;;1.20;1.00;;;10.10;99.90;;;;;;4995417;28;20176;-85
2024/01/18 02:43:08;;;;;;;2.07;1.00;;;10.00;99.90;;;;;;4993368;28;20193;-85
2024/01/18 02:45:35;;;;;;;1.43;1.10;;;10.40;99.90;;;;;;4989062;28;20216;-85
2024/01/18 02:48:01;;;;;;;1.77;1.30;;;10.00;99.90;;;;;;4982881;28;20185;-85
2024/01/18 02:50:26;;;;;;;1.10;1.00;;;9.90;99.90;;;;;;4977150;28;20229;-86
2024/01/18 02:52:52;;;;;;;0.90;0.90;;;9.90;99.90;;;;;;4980164;28;20193;-85
2024/01/18 02:55:18;;;;;;;1.00;0.83;;;9.80;99.90;;;;;;4980013;28;20200;-86
2024/01/18 02:57:44;;;;;;;1.60;1.45;;;10.20;99.90;;;;;;4986360;28;20177;-85
2024/01/18 03:00:11;;;;;;;1.80;1.40;;;10.40;99.90;;;;;;4974489;28;20198;-85
2024/01/18 03:02:38;;;;;;;1.05;0.95;;;10.00;99.90;;;;;;4980729;28;20437;-86
2024/01/18 03:05:04;;;;;;;0.80;0.80;;;10.20;99.90;;;;;;4978316;28;20213;-85
2024/01/18 03:07:31;;;;;;;1.38;1.25;;;10.10;99.90;;;;;;4979616;28;20197;-85
2024/01/18 03:09:56;;;;;;;1.00;0.90;;;10.10;99.90;;;;;;4977212;28;20231;-86
2024/01/18 03:12:22;;;;;;;1.93;1.13;;;10.40;99.90;;;;;;4986929;28;20174;-85
2024/01/18 03:14:47;;;;;;;2.37;0.77;;;10.20;99.90;;;;;;4982357;28;20231;-85
2024/01/18 03:17:13;;;;;;;0.80;0.80;;;10.20;99.90;;;;;;4974476;28;20190;-85
2024/01/18 03:19:40;;;;;;;1.77;0.80;;;10.30;99.90;;;;;;4972843;28;20181;-85
2024/01/18 03:22:05;;;;;;;1.90;0.90;;;10.70;99.90;;;;;;4972575;28;20608;-85
2024/01/18 03:24:31;;;;;;;0.80;0.80;;;10.70;99.90;;;;;;4972381;28;20221;-85
2024/01/18 03:26:56;;;;;;;1.17;0.80;;;10.20;99.90;;;;;;4971095;28;20198;-85
2024/01/18 03:29:22;;;;;;;1.67;0.90;;;10.60;99.90;;;;;;4971750;28;20189;-85
2024/01/18 03:31:47;;;;;;;1.00;0.83;;;10.50;99.90;;;;;;4978351;28;20605;-85
2024/01/18 03:34:13;;;;;;;2.50;2.30;;;10.20;99.90;;;;;;4975700;28;20207;-85
2024/01/18 03:36:38;;;;;;;2.03;1.83;;;10.50;99.90;;;;;;4973749;28;20224;-85
2024/01/18 03:39:06;;;;;;;1.10;1.00;;;9.80;99.90;;;;;;4992964;28;20209;-85
2024/01/18 03:41:32;;;;;;;2.40;1.38;;;10.00;99.90;;;;;;4979708;28;20185;-85
2024/01/18 03:43:58;;;;;;;1.63;1.30;;;10.20;99.90;;;;;;4993424;28;20231;-85
2024/01/18 03:46:25;;;;;;;1.35;1.25;;;10.20;99.90;;;;;;4973701;28;20268;-85
2024/01/18 03:48:51;;;;;;;1.80;1.50;;;10.00;99.90;;;;;;4978562;28;20272;-85
2024/01/18 03:51:16;;;;;;;1.40;1.30;;;10.00;99.90;;;;;;4981660;28;20200;-85
2024/01/18 03:53:43;;;;;;;1.87;1.30;;;10.00;99.90;;;;;;4978592;28;20209;-85
2024/01/18 03:56:11;;;;;;;1.40;1.30;;;10.30;99.90;;;;;;4985192;28;20201;-86
2024/01/18 03:58:37;;;;;;;2.10;1.40;;;9.90;99.90;;;;;;4994175;28;20198;-85
2024/01/18 04:01:02;;;;;;;3.40;1.57;;;10.10;99.90;;;;;;4975797;28;20171;-85
2024/01/18 04:03:28;;;;;;;1.90;1.80;;;10.00;99.90;;;;;;4994688;28;20282;-85
2024/01/18 04:05:53;;;;;;;2.97;1.50;;;9.90;99.90;;;;;;4971006;28;20210;-85
2024/01/18 04:08:19;;;;;;;2.27;1.83;;;9.80;99.90;;;;;;4973535;28;20189;-85
2024/01/18 04:10:44;;;;;;;3.33;1.50;;;10.30;99.90;;;;;;4978695;28;20220;-86
2024/01/18 04:13:10;;;;;;;3.20;2.03;;;9.90;99.90;;;;;;4977591;28;20185;-85
2024/01/18 04:15:35;;;;;;;2.40;1.80;;;10.20;99.90;;;;;;4980994;28;20238;-85
2024/01/18 04:18:01;;;;;;;4.80;4.33;;;10.00;99.90;;;;;;4980077;28;20583;-84
2024/01/18 04:20:28;;;;;;;5.17;4.43;;;10.10;99.90;;;;;;4981386;28;20188;-86
2024/01/18 04:22:54;;;;;;;7.10;6.40;;;9.40;99.90;;;;;;4986368;28;20164;-85
2024/01/18 04:25:20;;;;;;;8.00;7.20;;;9.30;99.90;;;;;;4990117;28;20313;-85
2024/01/18 04:27:47;;;;;;;8.47;7.60;;;9.30;99.90;;;;;;4983253;28;20460;-85
2024/01/18 04:30:13;;;;;;;7.47;6.60;;;9.50;99.90;;;;;;4978675;28;20224;-85
2024/01/18 04:32:39;;;;;;;8.50;7.63;;;9.10;99.90;;;;;;4966719;28;20181;-85
2024/01/18 04:35:05;;;;;;;8.43;7.60;;;9.20;99.90;;;;;;4982765;28;20682;-85
2024/01/18 04:37:32;;;;;;;7.65;6.90;;;8.90;99.90;;;;;;4982050;28;20415;-85
2024/01/18 04:39:58;;;;;;;7.55;6.85;;;8.90;99.90;;;;;;4997839;28;20212;-85
2024/01/18 04:42:23;;;;;;;7.40;6.70;;;9.00;99.90;;;;;;4994062;28;20325;-85
2024/01/18 04:44:49;;;;;;;8.23;7.43;;;9.20;99.90;;;;;;4992313;28;20236;-85
2024/01/18 04:47:15;;;;;;;7.87;7.17;;;9.00;99.90;;;;;;4974872;28;20268;-85
2024/01/18 04:49:40;;;;;;;8.37;7.57;;;8.60;99.90;;;;;;4996347;28;20204;-85
2024/01/18 04:52:05;;;;;;;7.33;6.70;;;9.20;99.90;;;;;;4979067;28;20659;-84
2024/01/18 04:54:32;;;;;;;7.53;6.80;;;8.90;99.90;;;;;;4981311;28;20209;-84
2024/01/18 04:56:58;;;;;;;6.40;5.80;;;9.20;99.90;;;;;;4992071;28;20177;-84
2024/01/18 04:59:24;;;;;;;6.57;5.93;;;8.90;99.90;;;;;;4979955;28;20186;-85
2024/01/18 05:01:49;;;;;;;6.30;5.70;;;9.10;99.90;;;;;;4970155;28;20450;-85
2024/01/18 05:04:15;;;;;;;6.20;5.70;;;8.70;99.90;;;;;;4975536;28;20507;-85
2024/01/18 05:06:40;;;;;;;5.93;5.33;;;8.70;99.90;;;;;;4975352;28;20263;-85
2024/01/18 05:09:06;;;;;;;5.87;5.37;;;8.10;99.90;;;;;;4975521;28;20188;-85
2024/01/18 05:11:31;;;;;;;6.60;6.00;;;8.20;99.90;;;;;;4975994;28;20184;-86
2024/01/18 05:13:57;;;;;;;6.50;5.87;;;8.10;99.90;;;;;;4983867;28;20208;-86
2024/01/18 05:16:23;;;;;;;6.80;6.20;;;8.50;99.90;;;;;;4988917;28;20174;-85
2024/01/18 05:18:48;;;;;;;6.53;5.93;;;8.50;99.90;;;;;;4993003;28;20189;-85
2024/01/18 05:21:14;;;;;;;7.37;6.67;;;8.20;99.90;;;;;;4992749;28;20933;-85
2024/01/18 05:23:39;;;;;;;5.60;5.10;;;8.50;99.90;;;;;;4983185;28;20255;-85
2024/01/18 05:26:05;;;;;;;7.57;6.83;;;7.90;99.90;;;;;;4980883;28;20217;-85
2024/01/18 05:28:30;;;;;;;7.53;6.83;;;8.00;99.90;;;;;;4981710;28;20654;-86
2024/01/18 05:30:57;;;;;;;8.53;6.93;;;8.10;99.90;;;;;;4977582;28;20180;-85
2024/01/18 05:33:22;;;;;;;6.82;6.15;;;8.40;99.90;;;;;;4981351;28;20192;-85
2024/01/18 05:35:49;;;;;;;7.00;6.30;;;8.10;99.90;;;;;;4978946;28;20205;-85
2024/01/18 05:38:14;;;;;;;7.20;6.43;;;8.50;99.90;;;;;;4978974;28;20187;-86
2024/01/18 05:40:40;;;;;;;6.50;5.90;;;8.00;99.90;;;;;;4977289;28;20176;-84
2024/01/18 05:43:06;;;;;;;6.90;6.30;;;8.50;99.90;;;;;;4977153;28;20271;-85
2024/01/18 05:45:31;;;;;;;5.90;5.43;;;8.10;99.90;;;;;;4979342;28;20251;-84
2024/01/18 05:47:57;;;;;;;7.80;7.00;;;8.00;99.90;;;;;;4979428;28;20188;-84
2024/01/18 05:50:23;;;;;;;7.80;7.10;;;8.00;99.90;;;;;;4993660;28;20207;-85
2024/01/18 05:52:48;;;;;;;7.40;6.73;;;8.30;99.90;;;;;;4977964;28;20216;-84
2024/01/18 05:55:14;;;;;;;7.43;6.63;;;8.00;99.90;;;;;;4976444;28;20464;-84
2024/01/18 05:57:41;;;;;;;7.60;6.80;;;7.80;99.90;;;;;;4970052;28;20172;-84
2024/01/18 06:00:07;;;;;;;8.30;7.50;;;8.40;99.90;;;;;;4967550;28;20650;-85
2024/01/18 06:02:33;;;;;;;7.90;7.18;;;7.90;99.90;;;;;;4980503;28;20263;-84
2024/01/18 06:04:58;;;;;;;6.87;6.17;;;7.80;99.90;;;;;;4980078;28;20220;-84
2024/01/18 06:07:24;;;;;;;7.40;6.70;;;8.10;99.90;;;;;;4983331;28;20181;-85
2024/01/18 06:09:49;;;;;;;7.63;6.93;;;7.90;99.90;;;;;;4981689;28;20184;-86
2024/01/18 06:12:17;;;;;;;6.47;5.77;;;;;;;;;;4963604;28;20204;-85
2024/01/18 06:14:44;;;;;;;6.40;5.80;;;7.40;99.90;;;;;;4980681;28;20204;-85
2024/01/18 06:17:10;;;;;;;6.57;5.88;;;7.70;99.90;;;;;;4979795;28;20220;-84
2024/01/18 06:19:35;;;;;;;4.93;4.50;;;7.30;99.90;;;;;;4982436;28;20184;-85
2024/01/18 06:22:02;;;;;;;5.00;4.60;;;6.70;99.90;;;;;;4978575;28;20457;-84
2024/01/18 06:24:29;;;;;;;5.00;4.45;;;6.70;99.90;;;;;;4978522;28;20227;-85
2024/01/18 06:26:55;;;;;;;5.30;4.80;;;6.40;99.90;;;;;;4978867;28;20176;-84
2024/01/18 06:29:29;;;;;;;4.60;4.20;;;7.00;99.90;;;;;;4978779;28;20195;-85
2024/01/18 06:31:55;;;;;;;4.70;4.20;;;6.40;99.90;;;;;;4978450;28;20176;-85
2024/01/18 06:34:20;;;;;;;3.70;3.40;;;6.70;99.90;;;;;;4980790;28;20736;-85
2024/01/18 06:36:46;;;;;;;3.90;3.60;;;6.70;99.90;;;;;;4977505;28;20845;-85
2024/01/18 06:39:11;;;;;;;2.90;2.70;;;6.70;99.90;;;;;;4979918;28;20247;-82
2024/01/18 06:41:37;;;;;;;3.33;3.13;;;6.20;99.90;;;;;;4979659;28;20210;-84
2024/01/18 06:44:02;;;;;;;3.50;3.20;;;6.10;99.90;;;;;;4979126;28;20208;-84
2024/01/18 06:46:29;;;;;;;3.38;3.03;;;5.90;99.90;;;;;;4978628;28;20662;-84
2024/01/18 06:48:57;;;;;;;3.33;3.03;;;5.90;99.90;;;;;;4980222;28;20215;-84
2024/01/18 06:51:23;;;;;;;3.45;3.15;;;5.90;99.90;;;;;;4973604;28;20269;-84
2024/01/18 06:53:49;;;;;;;3.10;2.80;;;5.60;99.90;;;;;;4978238;28;20192;-83
2024/01/18 06:56:14;;;;;;;3.50;3.20;;;6.10;99.90;;;;;;4974901;28;20205;-86
2024/01/18 06:58:40;;;;;;;6.17;4.90;;;5.60;99.90;;;;;;4978902;28;20179;-86
2024/01/18 07:01:06;;;;;;;3.73;3.43;;;6.00;99.90;;;;;;4993111;28;20196;-86
2024/01/18 07:03:35;;;;;;;5.35;4.03;;;6.10;99.90;;;;;;4987496;28;20183;-86
2024/01/18 07:06:04;;;;;;;2.55;2.35;;;5.90;99.90;;;;;;4982317;28;20215;-86
2024/01/18 07:08:30;;;;;;;2.90;2.70;;;5.80;99.90;;;;;;4968451;28;20191;-87
2024/01/18 07:10:56;;;;;;;2.53;2.30;;;5.30;99.90;;;;;;4977055;28;20235;-87
2024/01/18 07:13:22;;;;;;;2.45;2.25;;;5.50;99.90;;;;;;4959581;28;20498;-86
2024/01/18 07:15:47;;;;;;;2.60;2.40;;;5.50;99.90;;;;;;4972415;28;20203;-86
2024/01/18 07:18:13;;;;;;;2.80;2.60;;;5.40;99.90;;;;;;4967254;28;20227;-87
2024/01/18 07:20:39;;;;;;;3.30;3.00;;;5.70;99.90;;;;;;4978171;28;20183;-87
2024/01/18 07:23:04;;;;;;;3.70;3.40;;;5.50;99.90;;;;;;4970941;28;20197;-86
2024/01/18 07:25:30;;;;;;;3.60;3.30;;;5.30;99.90;;;;;;4972984;28;20749;-86
2024/01/18 07:27:56;;;;;;;3.50;2.80;;;5.50;99.90;;;;;;4980813;28;20207;-87
2024/01/18 07:30:22;;;;;;;3.30;3.00;;;5.90;99.90;;;;;;4970045;28;20207;-86
2024/01/18 07:32:50;;;;;;;2.60;2.37;;;5.60;99.90;;;;;;4975517;28;20452;-86
2024/01/18 07:35:16;;;;;;;3.03;2.58;;;5.60;99.90;;;;;;4970938;28;20216;-86
2024/01/18 07:37:42;;;;;;;2.13;2.00;;;5.50;99.90;;;;;;4970971;28;20696;-86
2024/01/18 07:40:08;;;;;;;2.60;2.40;;;5.40;99.90;;;;;;4984525;28;20192;-86
2024/01/18 07:42:34;;;;;;;3.33;3.05;;;5.40;99.90;;;;;;4967931;28;20677;-87
2024/01/18 07:44:59;;;;;;;4.83;2.50;;;6.50;99.90;;;;;;4957326;28;20231;-86
2024/01/18 07:47:25;;;;;;;2.70;2.50;;;5.50;99.90;;;;;;4969761;28;20191;-85
2024/01/18 07:49:51;;;;;;;2.30;2.20;;;5.50;99.90;;;;;;4971183;28;20187;-86
2024/01/18 07:52:18;;;;;;;3.13;2.83;;;5.50;99.90;;;;;;4972678;28;20535;-86
2024/01/18 07:54:43;;;;;;;3.38;2.95;;;5.50;99.90;;;;;;4959608;28;20213;-85
2024/01/18 07:57:09;;;;;;;3.10;2.73;;;5.60;99.90;;;;;;4976152;28;20302;-87
2024/01/18 07:59:35;;;;;;;3.03;2.50;;;5.00;99.90;;;;;;4966830;28;20669;-87
2024/01/18 08:02:01;;;;;;;3.90;2.37;;;5.60;99.90;;;;;;4968997;28;20451;-86
2024/01/18 08:04:27;;;;;;;2.83;2.60;;;5.60;99.90;;;;;;4980222;28;20219;-86
2024/01/18 08:06:52;;;;;;;3.45;3.00;;;5.70;99.90;;;;;;4986323;28;20470;-88
2024/01/18 08:09:18;;;;;;;4.53;4.10;;;5.40;99.90;;;;;;4975594;28;20600;-86
2024/01/18 08:11:45;;;;;;;2.87;2.50;;;5.30;99.90;;;;;;4952730;28;20260;-85
2024/01/18 08:14:11;;;;;;;2.70;2.50;;;5.40;99.90;;;;;;4967905;28;20184;-87
2024/01/18 08:16:37;;;;;;;3.03;2.73;;;5.20;99.90;;;;;;4963959;28;20199;-86
2024/01/18 08:19:02;;;;;;;3.07;2.77;;;5.40;99.90;;;;;;4970947;28;20219;-87
2024/01/18 08:21:28;;;;;;;3.27;2.30;;;5.30;99.90;;;;;;4974084;28;20250;-86
2024/01/18 08:23:54;;;;;;;2.87;2.57;;;5.00;99.90;;;;;;4973268;28;20224;-86
2024/01/18 08:26:20;;;;;;;5.20;3.80;;;5.10;99.90;;;;;;4974931;28;20689;-86
2024/01/18 08:28:46;;;;;;;3.03;2.72;;;5.60;99.90;;;;;;4969792;28;20195;-86
2024/01/18 08:31:12;;;;;;;2.50;2.30;;;5.30;99.90;;;;;;4971727;28;20188;-86
2024/01/18 08:33:38;;;;;;;2.93;2.73;;;5.30;99.90;;;;;;4973841;28;20743;-87
2024/01/18 08:36:04;;;;;;;2.97;2.77;;;5.50;99.90;;;;;;4976706;28;20293;-86
2024/01/18 08:38:30;;;;;;;3.25;2.95;;;5.40;99.90;;;;;;4960910;28;20215;-86
2024/01/18 08:40:56;;;;;;;3.35;2.72;;;5.50;99.90;;;;;;4975253;28;20188;-87
2024/01/18 08:43:26;;;;;;;3.15;2.55;;;5.50;99.90;;;;;;4973007;28;20280;-87
2024/01/18 08:45:53;;;;;;;3.03;2.72;;;4.90;99.90;;;;;;4980323;28;20226;-86
2024/01/18 08:48:20;;;;;;;2.55;2.35;;;4.90;99.90;;;;;;4975520;28;20196;-85
2024/01/18 08:50:46;;;;;;;3.67;3.20;;;5.10;99.90;;;;;;4971037;28;20201;-87
2024/01/18 08:53:11;;;;;;;2.50;2.30;;;5.00;99.90;;;;;;4972734;28;20648;-88
2024/01/18 08:55:38;;;;;;;2.17;2.00;;;4.80;99.90;;;;;;4974548;28;20519;-87
2024/01/18 08:58:04;;;;;;;5.00;3.20;;;5.10;99.90;;;;;;4975404;28;20203;-87
2024/01/18 09:00:30;;;;;;;2.38;2.17;;;5.20;99.90;;;;;;4970240;28;20191;-87
2024/01/18 09:02:55;;;;;;;2.40;2.20;;;5.20;99.90;;;;;;4971460;28;20197;-87
2024/01/18 09:05:21;;;;;;;2.57;2.37;;;4.80;99.90;;;;;;4973844;28;20234;-84
2024/01/18 09:07:47;;;;;;;2.03;1.90;;;4.60;99.90;;;;;;4979301;28;20183;-85
2024/01/18 09:10:12;;;;;;;2.83;2.63;;;4.90;99.90;;;;;;5001321;28;20179;-84
2024/01/18 09:12:38;;;;;;;3.00;2.80;;;5.20;99.90;;;;;;4990060;28;20184;-84
2024/01/18 09:15:04;;;;;;;2.47;2.27;;;4.70;99.90;;;;;;4980006;28;20478;-87
2024/01/18 09:17:30;;;;;;;3.45;3.15;;;4.60;99.90;;;;;;4983588;28;20180;-86
2024/01/18 09:19:56;;;;;;;3.70;3.40;;;4.70;99.90;;;;;;4995287;28;20199;-85
2024/01/18 09:22:21;;;;;;;3.60;3.00;;;4.40;99.90;;;;;;4992159;28;20457;-85
2024/01/18 09:24:49;;;;;;;3.45;2.88;;;4.30;99.90;;;;;;4979072;28;20222;-84
2024/01/18 09:27:14;;;;;;;3.30;3.05;;;4.30;99.90;;;;;;4978690;28;20194;-83
2024/01/18 09:29:40;;;;;;;2.60;2.40;;;5.00;99.90;;;;;;4980987;28;20192;-85
2024/01/18 09:32:08;;;;;;;3.57;2.80;;;5.00;99.90;;;;;;4984018;28;20206;-85
2024/01/18 09:34:35;;;;;;;2.70;2.50;;;4.60;99.90;;;;;;4989881;28;20202;-85
2024/01/18 09:37:02;;;;;;;2.90;2.70;;;4.40;99.90;;;;;;4984494;28;20190;-85
2024/01/18 09:39:29;;;;;;;2.70;2.50;;;4.20;99.90;;;;;;4984946;28;20242;-86
2024/01/18 09:41:55;;;;;;;2.30;2.10;;;4.10;99.90;;;;;;4987958;28;20193;-85
2024/01/18 09:44:30;;;;;;;1.90;1.80;;;4.60;99.90;;;;;;4981154;28;20224;-84
2024/01/18 09:46:57;;;;;;;1.80;1.70;;;4.30;99.90;;;;;;4983113;28;20237;-84
2024/01/18 09:49:24;;;;;;;2.13;1.92;;;4.10;99.90;;;;;;4985624;28;20217;-86
2024/01/18 09:51:50;;;;;;;1.70;1.60;;;;;;;;;;4984540;28;20204;-85
2024/01/18 09:54:17;;;;;;;1.60;1.50;;;4.00;99.90;;;;;;4977112;28;20219;-85
2024/01/18 09:56:45;;;;;;;1.50;1.40;;;3.90;99.90;;;;;;4982118;28;20190;-87
2024/01/18 09:59:15;;;;;;;1.90;1.80;;;4.10;99.90;;;;;;4973057;28;20178;-87
2024/01/18 10:01:41;;;;;;;2.58;1.40;;;3.80;99.90;;;;;;4986134;28;20191;-87
2024/01/18 10:04:08;;;;;;;1.80;1.70;;;3.80;99.90;;;;;;4989368;28;20201;-87
2024/01/18 10:06:34;;;;;;;1.30;1.20;;;4.20;99.90;;;;;;4990916;28;20182;-87
2024/01/18 10:09:00;;;;;;;1.67;1.57;;;4.00;99.90;;;;;;4988304;28;20272;-88
2024/01/18 10:11:26;;;;;;;2.20;2.00;;;3.70;99.90;;;;;;4980077;28;20197;-87
2024/01/18 10:13:53;;;;;;;2.10;1.90;;;3.70;99.90;;;;;;4987548;28;20540;-86
2024/01/18 10:16:30;;;;;;;1.80;1.38;;;3.50;99.90;;;;;;4974967;28;20646;-86
2024/01/18 10:19:00;;;;;;;1.73;1.55;;;3.60;99.90;;;;;;4990589;28;20193;-87
2024/01/18 10:21:27;;;;;;;2.00;1.90;;;3.40;99.90;;;;;;4972665;28;20197;-85
2024/01/18 10:23:54;;;;;;;2.28;1.58;;;3.50;99.90;;;;;;4978435;28;20216;-85
2024/01/18 10:26:21;;;;;;;1.40;1.30;;;3.50;99.90;;;;;;4976975;28;20178;-86
2024/01/18 10:28:47;;;;;;;1.35;1.20;;;3.50;99.90;;;;;;4970129;28;20239;-85
2024/01/18 10:31:13;;;;;;;1.83;1.73;;;3.70;99.90;;;;;;4971979;28;20182;-86
2024/01/18 10:33:39;;;;;;;1.40;1.30;;;3.80;99.90;;;;;;4972626;28;21461;-86
2024/01/18 10:36:05;;;;;;;1.70;1.60;;;4.00;99.90;;;;;;4977947;28;20584;-87
2024/01/18 10:38:32;;;;;;;1.30;1.20;;;3.50;99.90;;;;;;4972480;28;20611;-84
2024/01/18 10:40:59;;;;;;;1.40;1.30;;;3.50;99.90;;;;;;4981267;28;20448;-84
2024/01/18 10:43:32;;;;;;;1.90;1.80;;;3.30;99.90;;;;;;4976902;28;20277;-84
2024/01/18 10:45:59;;;;;;;1.95;1.70;;;3.20;99.90;;;;;;4981843;28;20609;-84
2024/01/18 10:48:31;;;;;;;1.63;1.50;;;3.20;99.90;;;;;;4976405;28;20222;-84
2024/01/18 10:50:57;;;;;;;1.60;1.50;;;3.20;99.90;;;;;;4976919;28;20212;-83
2024/01/18 10:53:33;;;;;;;1.40;1.30;;;3.50;99.90;;;;;;4992010;28;20264;-85
2024/01/18 10:56:02;;;;;;;1.50;1.35;;;3.30;99.90;;;;;;4989973;28;20201;-84
2024/01/18 10:58:29;;;;;;;2.03;1.90;;;3.40;99.90;;;;;;4991279;28;20189;-85
2024/01/18 11:00:55;;;;;;;1.80;1.70;;;3.30;99.90;;;;;;4981663;28;20281;-84
2024/01/18 11:03:20;;;;;;;1.90;1.77;;;3.50;99.90;;;;;;4978603;28;20193;-84
2024/01/18 11:05:48;;;;;;;2.30;2.10;;;3.30;99.90;;;;;;4973716;28;20481;-85
2024/01/18 11:08:14;;;;;;;2.72;2.10;;;3.90;99.90;;;;;;4976867;28;20185;-83
2024/01/18 11:10:42;;;;;;;3.00;2.50;;;3.40;99.90;;;;;;4970061;28;20696;-83
2024/01/18 11:13:09;;;;;;;3.17;2.65;;;3.90;99.90;;;;;;4978789;28;20170;-83
2024/01/18 11:15:36;;;;;;;4.60;3.53;;;4.00;99.90;;;;;;4978917;28;20215;-84
2024/01/18 11:18:11;;;;;;;3.55;2.35;;;3.50;99.90;;;;;;4979368;28;20252;-84
2024/01/18 11:20:59;;;;;;;3.65;2.75;;;3.70;99.90;;;;;;4977095;28;20189;-84
2024/01/18 11:23:33;;;;;;;2.10;1.90;;;3.70;99.90;;;;;;4970345;28;20454;-86
2024/01/18 11:25:58;;;;;;;1.75;1.65;;;3.60;99.90;;;;;;4971807;28;20228;-85
2024/01/18 11:28:26;;;;;;;1.90;1.80;;;3.40;99.90;;;;;;4972230;28;20178;-84
2024/01/18 11:30:52;;;;;;;2.15;1.95;;;3.50;99.90;;;;;;4974499;28;20204;-85
2024/01/18 11:33:21;;;;;;;1.90;1.80;;;3.60;99.90;;;;;;4973086;28;20195;-85
2024/01/18 11:35:48;;;;;;;2.40;2.20;;;3.50;99.90;;;;;;4975081;28;20365;-84
2024/01/18 11:38:23;;;;;;;3.33;3.00;;;3.80;99.90;;;;;;4977226;28;20212;-85
2024/01/18 11:40:57;;;;;;;2.28;2.00;;;3.50;99.90;;;;;;4975947;28;20530;-85
2024/01/18 11:43:24;;;;;;;4.03;2.05;;;3.20;99.90;;;;;;4972536;28;20258;-86
2024/01/18 11:45:54;;;;;;;2.75;2.47;;;3.00;99.90;;;;;;4973686;28;20218;-85
2024/01/18 11:48:20;;;;;;;2.60;2.40;;;3.00;99.90;;;;;;4979751;28;20556;-85
2024/01/18 11:50:46;;;;;;;2.73;2.50;;;2.80;99.90;;;;;;4974711;28;20196;-85
2024/01/18 11:53:11;;;;;;;2.67;2.47;;;3.10;99.90;;;;;;4978869;28;20198;-85
2024/01/18 11:55:48;;;;;;;3.00;2.70;;;3.20;99.90;;;;;;4976750;28;20208;-85
2024/01/18 11:58:14;;;;;;;3.28;2.97;;;3.00;99.90;;;;;;4969745;28;20495;-84
2024/01/18 12:00:41;;;;;;;3.30;2.80;;;3.40;99.90;;;;;;4973275;28;20194;-86
2024/01/18 12:03:09;;;;;;;3.78;3.47;;;3.10;99.90;;;;;;4979198;28;20458;-84
2024/01/18 12:05:35;;;;;;;3.28;3.03;;;3.30;99.90;;;;;;4980543;28;20218;-84
2024/01/18 12:08:01;;;;;;;3.27;2.97;;;3.20;99.90;;;;;;4995128;28;20204;-84
2024/01/18 12:10:26;;;;;;;3.77;3.47;;;3.40;99.90;;;;;;4989347;28;20205;-84
2024/01/18 12:12:52;;;;;;;3.50;3.20;;;3.20;99.90;;;;;;4974214;28;20258;-85
2024/01/18 12:15:19;;;;;;;3.17;2.97;;;3.10;99.90;;;;;;4981257;28;20194;-85
2024/01/18 12:17:45;;;;;;;4.70;3.50;;;2.90;99.90;;;;;;4989999;28;20203;-86
2024/01/18 12:20:17;;;;;;;4.55;4.15;;;3.50;99.90;;;;;;4977553;28;20539;-85
2024/01/18 12:22:43;;;;;;;3.72;3.53;;;3.20;99.90;;;;;;4974946;28;20178;-84
2024/01/18 12:25:09;;;;;;;4.03;3.72;;;3.30;99.90;;;;;;4978618;28;20607;-85
2024/01/18 12:27:35;;;;;;;4.17;3.77;;;2.60;99.90;;;;;;4980801;28;20285;-86
2024/01/18 12:30:02;;;;;;;4.77;4.37;;;3.00;99.90;;;;;;4978075;28;20253;-86
2024/01/18 12:32:27;;;;;;;5.10;4.60;;;3.00;99.90;;;;;;4960608;28;20447;-86
2024/01/18 12:34:57;;;;;;;4.00;3.60;;;3.10;99.90;;;;;;4977632;28;20213;-86
2024/01/18 12:37:23;;;;;;;5.05;4.63;;;2.60;99.90;;;;;;4974409;28;20186;-85
2024/01/18 12:39:51;;;;;;;4.93;4.50;;;2.90;99.90;;;;;;4975751;28;20673;-85
2024/01/18 12:42:17;;;;;;;4.50;4.10;;;2.50;99.90;;;;;;4979343;28;20192;-86
2024/01/18 12:44:42;;;;;;;4.83;4.40;;;2.30;99.90;;;;;;4977639;28;20239;-86
2024/01/18 12:47:08;;;;;;;5.30;4.80;;;2.70;99.90;;;;;;4982678;28;20193;-86
2024/01/18 12:49:34;;;;;;;4.90;4.45;;;2.70;99.90;;;;;;4979609;28;20193;-86
2024/01/18 12:52:01;;;;;;;5.93;5.25;;;2.90;99.90;;;;;;4977307;28;20201;-86